Time;durP1;ratioP1;P1;durP2;ratioP2;P2;SDS_P1;SDS_P2;PMS_P1;PMS_P2;Temp;Humidity;BMP_temperature;BMP_pressure;BME280_temperature;BME280_humidity;BME280_pressure;Samples;Min_cycle;Max_cycle;Signal;HPM_P1;HPM_P2
2023/07/26 00:01:01;;;;;;;38.47;34.92;;;;;;;18.57;83.00;98633.66;5133751;27;20039;-45
2023/07/26 00:03:27;;;;;;;20.48;13.57;;;;;;;18.80;82.41;98623.78;5132282;27;20122;-45
2023/07/26 00:05:52;;;;;;;8.43;4.90;;;;;;;19.07;81.71;98623.69;5132249;27;20054;-45
2023/07/26 00:08:19;;;;;;;7.55;3.58;;;;;;;19.35;80.93;98630.47;5115097;27;20027;-45
2023/07/26 00:10:48;;;;;;;3.63;1.73;;;;;;;19.43;78.52;98626.53;5132212;27;20019;-45
2023/07/26 00:13:17;;;;;;;5.55;1.63;;;;;;;19.34;78.13;98624.38;5132172;27;20453;-45
2023/07/26 00:15:43;;;;;;;6.70;5.53;;;;;;;19.19;78.54;98631.47;5133381;27;20050;-45
2023/07/26 00:18:09;;;;;;;3.67;1.70;;;;;;;19.06;79.10;98624.75;5133460;27;20023;-45
2023/07/26 00:20:35;;;;;;;5.35;1.55;;;;;;;19.18;79.44;98625.34;5133312;27;20019;-45
2023/07/26 00:23:02;;;;;;;8.82;4.80;;;;;;;19.37;79.05;98633.69;5132005;27;20046;-44
2023/07/26 00:25:28;;;;;;;3.45;1.75;;;;;;;19.76;78.05;98622.69;5133239;27;20051;-45
2023/07/26 00:27:54;;;;;;;7.43;1.98;;;;;;;20.04;76.70;98621.44;5132024;27;20057;-45
2023/07/26 00:30:20;;;;;;;14.68;9.07;;;;;;;20.19;75.56;98617.97;5131840;27;20019;-45
2023/07/26 00:32:45;;;;;;;1.90;1.60;;;;;;;20.27;73.91;98622.00;5131903;27;20034;-45
2023/07/26 00:35:24;;;;;;;8.85;2.13;;;;;;;19.91;71.86;98619.25;5131477;27;20442;-45
2023/07/26 00:37:50;;;;;;;7.00;1.98;;;;;;;19.69;72.55;98619.44;5131698;27;20176;-45
2023/07/26 00:40:16;;;;;;;9.25;6.85;;;;;;;19.48;72.54;98619.38;5131645;27;20106;-45
2023/07/26 00:42:41;;;;;;;6.57;2.30;;;;;;;19.65;72.74;98618.38;5114698;27;20538;-45
2023/07/26 00:45:07;;;;;;;3.53;1.73;;;;;;;19.69;71.93;98617.56;5131581;27;20035;-45
2023/07/26 00:47:34;;;;;;;3.70;1.33;;;;;;;19.61;70.85;98622.59;5131962;27;20026;-46
2023/07/26 00:50:00;;;;;;;2.17;1.42;;;;;;;19.60;70.61;98621.00;5132816;27;20050;-45
2023/07/26 00:52:26;;;;;;;4.13;1.58;;;;;;;19.52;68.92;98619.66;5131601;27;20104;-45
2023/07/26 00:54:57;;;;;;;5.78;1.58;;;;;;;19.43;69.56;98629.97;5132851;27;20472;-45
2023/07/26 00:57:23;;;;;;;8.25;1.75;;;;;;;19.49;70.32;98634.25;5132788;27;20098;-45
2023/07/26 00:59:49;;;;;;;5.65;1.98;;;;;;;19.56;69.76;98634.03;5131244;28;20049;-45
2023/07/26 01:02:14;;;;;;;2.47;1.60;;;;;;;19.30;69.41;98630.47;5132813;27;20027;-45
2023/07/26 01:04:40;;;;;;;23.60;19.25;;;;;;;18.99;69.76;98637.47;5132769;27;20022;-46
2023/07/26 01:07:14;;;;;;;4.15;1.70;;;;;;;19.01;70.34;98641.47;5132739;27;20031;-45
2023/07/26 01:09:50;;;;;;;7.45;4.60;;;;;;;18.92;70.02;98635.81;5132706;27;20042;-45
2023/07/26 01:12:26;;;;;;;5.78;1.67;;;;;;;18.72;70.49;98638.31;5132699;27;20143;-45
2023/07/26 01:15:06;;;;;;;5.32;1.50;;;;;;;18.62;70.58;98633.72;5131399;28;20053;-45
2023/07/26 01:17:32;;;;;;;9.95;1.90;;;;;;;18.61;71.80;98641.94;5132622;27;20108;-45
2023/07/26 01:19:58;;;;;;;2.30;1.30;;;;;;;18.76;70.72;98636.75;5132625;27;20465;-45
2023/07/26 01:22:23;;;;;;;3.38;1.80;;;;;;;18.65;70.63;98635.06;5132562;27;20047;-45
2023/07/26 01:24:49;;;;;;;4.28;2.00;;;;;;;18.64;70.83;98638.78;5131411;28;20020;-45
2023/07/26 01:27:15;;;;;;;7.82;1.42;;;;;;;18.50;70.97;98636.53;5132471;28;20094;-45
2023/07/26 01:29:40;;;;;;;5.25;1.52;;;;;;;18.65;71.41;98640.38;5132445;27;20030;-45
2023/07/26 01:32:09;;;;;;;10.90;1.80;;;;;;;18.83;70.98;98628.56;5131178;28;20031;-45
2023/07/26 01:34:35;;;;;;;5.30;2.92;;;;;;;18.96;70.19;98636.13;5132432;27;20075;-45
2023/07/26 01:37:01;;;;;;;7.30;2.00;;;;;;;18.99;70.19;98632.94;5131130;28;20023;-45
2023/07/26 01:39:28;;;;;;;7.60;2.10;;;;;;;18.87;69.75;98629.66;5132443;27;20051;-45
2023/07/26 01:41:54;;;;;;;7.35;2.80;;;;;;;19.00;70.15;98641.75;5132431;27;20049;-45
2023/07/26 01:44:20;;;;;;;10.05;2.60;;;;;;;19.14;69.61;98633.03;5132408;27;20023;-45
2023/07/26 01:46:46;;;;;;;2.75;1.80;;;;;;;19.40;68.59;98635.00;5132340;27;20025;-45
2023/07/26 01:49:12;;;;;;;5.75;2.55;;;;;;;19.46;68.19;98642.78;5134574;27;20026;-45
2023/07/26 01:51:38;;;;;;;3.50;1.45;;;;;;;19.66;67.55;98638.59;5136268;27;20395;-45
2023/07/26 01:54:04;;;;;;;5.93;1.70;;;;;;;19.49;67.20;98639.59;5134868;27;20114;-45
2023/07/26 01:56:29;;;;;;;6.60;2.15;;;;;;;19.48;67.28;98645.19;5134865;27;20027;-45
2023/07/26 01:58:55;;;;;;;3.80;1.38;;;;;;;19.65;67.06;98651.09;5135867;27;20055;-44
2023/07/26 02:01:21;;;;;;;2.72;1.40;;;;;;;19.78;65.80;98644.53;5136056;27;20457;-45
2023/07/26 02:03:46;;;;;;;6.05;1.73;;;;;;;19.87;65.68;98647.50;5136338;27;20483;-45
2023/07/26 02:06:12;;;;;;;7.95;2.05;;;;;;;19.84;65.38;98648.81;5134718;27;20050;-45
2023/07/26 02:08:38;;;;;;;11.18;2.13;;;;;;;19.84;65.31;98648.81;5135920;27;20391;-45
2023/07/26 02:11:04;;;;;;;3.38;1.73;;;;;;;19.89;65.32;98656.03;5135826;27;20035;-45
2023/07/26 02:13:29;;;;;;;5.35;1.50;;;;;;;19.88;64.57;98657.88;5135852;27;20015;-45
2023/07/26 02:15:55;;;;;;;5.10;1.55;;;;;;;19.90;64.75;98666.41;5135799;27;20067;-45
2023/07/26 02:18:22;;;;;;;4.15;1.38;;;;;;;19.94;64.38;98664.84;5135772;27;20106;-45
2023/07/26 02:20:48;;;;;;;4.45;1.63;;;;;;;19.94;64.05;98656.00;5135674;27;20031;-45
2023/07/26 02:23:14;;;;;;;8.77;1.80;;;;;;;19.79;64.06;98658.66;5135896;27;20020;-45
2023/07/26 02:25:39;;;;;;;9.88;1.77;;;;;;;19.71;64.13;98660.75;5117160;27;20504;-45
2023/07/26 02:28:05;;;;;;;7.25;1.92;;;;;;;19.42;64.37;98662.16;5134241;27;20059;-45
2023/07/26 02:30:31;;;;;;;5.18;2.05;;;;;;;19.27;65.49;98661.03;5135679;27;20476;-45
2023/07/26 02:32:56;;;;;;;9.63;2.40;;;;;;;19.37;65.55;98660.28;5134154;27;20039;-45
2023/07/26 02:35:22;;;;;;;6.05;1.40;;;;;;;19.42;65.03;98664.84;5135348;27;20038;-45
2023/07/26 02:37:47;;;;;;;4.35;1.80;;;;;;;19.38;65.28;98667.22;5135455;27;20023;-45
2023/07/26 02:40:13;;;;;;;6.55;2.03;;;;;;;19.18;65.07;98665.25;5135311;27;20033;-45
2023/07/26 02:42:39;;;;;;;5.15;1.92;;;;;;;18.90;65.72;98664.53;5133952;27;20084;-45
2023/07/26 02:45:05;;;;;;;9.68;2.22;;;;;;;18.79;66.48;98668.16;5133852;27;20561;-45
2023/07/26 02:47:32;;;;;;;6.10;1.70;;;;;;;19.00;66.46;98665.66;5135200;27;20044;-45
2023/07/26 02:50:01;;;;;;;7.13;2.05;;;;;;;19.16;65.87;98672.69;5134948;27;20025;-45
2023/07/26 02:52:27;;;;;;;6.00;2.00;;;;;;;19.22;65.63;98670.88;5135331;27;20016;-45
2023/07/26 02:54:53;;;;;;;4.88;1.85;;;;;;;19.39;65.19;98671.47;5133736;27;20035;-45
2023/07/26 02:57:19;;;;;;;3.35;1.70;;;;;;;19.55;64.72;98672.38;5134894;27;20031;-45
2023/07/26 02:59:44;;;;;;;3.38;1.60;;;;;;;19.68;63.97;98679.88;5115850;27;20085;-45
2023/07/26 03:02:10;;;;;;;8.88;1.73;;;;;;;19.76;63.60;98681.28;5133515;27;20552;-45
2023/07/26 03:04:35;;;;;;;10.63;2.05;;;;;;;19.79;63.54;98682.63;5134862;27;20508;-45
2023/07/26 03:07:01;;;;;;;9.13;2.30;;;;;;;19.83;63.24;98683.69;5134766;27;20023;-45
2023/07/26 03:09:27;;;;;;;8.25;1.98;;;;;;;19.83;63.24;98679.16;5133344;27;20102;-45
2023/07/26 03:11:52;;;;;;;10.23;2.50;;;;;;;19.89;62.81;98682.66;5134623;27;20110;-45
2023/07/26 03:14:18;;;;;;;11.32;2.60;;;;;;;19.80;62.70;98684.19;5134669;27;20243;-45
2023/07/26 03:16:44;;;;;;;11.27;2.35;;;;;;;19.87;62.81;98680.25;5134575;27;20080;-45
2023/07/26 03:19:09;;;;;;;9.20;2.25;;;;;;;19.93;62.70;98694.38;5134507;27;20381;-44
2023/07/26 03:21:35;;;;;;;17.02;2.58;;;;;;;19.82;61.92;98685.56;5134769;27;20092;-45
2023/07/26 03:24:01;;;;;;;17.95;2.72;;;;;;;19.34;62.45;98693.56;5133144;27;20088;-45
2023/07/26 03:26:27;;;;;;;11.43;2.30;;;;;;;18.77;63.54;98688.84;5134298;27;20024;-45
2023/07/26 03:28:52;;;;;;;10.60;2.33;;;;;;;18.21;64.66;98693.66;5132973;27;20057;-45
2023/07/26 03:31:18;;;;;;;9.77;1.90;;;;;;;17.71;66.23;98690.94;5132947;27;20023;-45
2023/07/26 03:33:44;;;;;;;11.40;2.20;;;;;;;17.27;67.58;98693.53;5134290;27;20046;-45
2023/07/26 03:36:09;;;;;;;8.27;1.88;;;;;;;16.88;68.81;98693.50;5134097;27;20041;-45
2023/07/26 03:38:35;;;;;;;12.00;2.88;;;;;;;16.62;70.15;98696.72;5132794;27;20099;-45
2023/07/26 03:41:00;;;;;;;10.40;2.22;;;;;;;16.95;72.26;98686.19;5134290;27;20068;-45
2023/07/26 03:43:26;;;;;;;8.63;1.75;;;;;;;17.24;70.91;98686.06;5134075;27;20012;-45
2023/07/26 03:45:52;;;;;;;10.27;2.88;;;;;;;17.42;71.19;98690.28;5133901;27;20048;-45
2023/07/26 03:48:17;;;;;;;4.93;2.63;;;;;;;17.54;70.06;98687.53;5134157;27;20027;-45
2023/07/26 03:50:43;;;;;;;17.90;11.20;;;;;;;17.67;70.47;98692.50;5132446;27;20480;-45
2023/07/26 03:53:09;;;;;;;11.27;2.97;;;;;;;17.85;69.68;98690.59;5132524;27;20152;-45
2023/07/26 03:55:34;;;;;;;10.07;2.13;;;;;;;17.94;69.46;98697.09;5134077;27;20105;-45
2023/07/26 03:58:00;;;;;;;5.65;2.53;;;;;;;18.14;69.22;98692.00;5132436;27;20102;-45
2023/07/26 04:00:25;;;;;;;4.35;2.05;;;;;;;18.38;68.20;98690.91;5133394;27;20053;-45
2023/07/26 04:02:51;;;;;;;3.83;1.70;;;;;;;18.44;67.43;98689.91;5132376;27;20126;-44
2023/07/26 04:05:18;;;;;;;9.20;2.78;;;;;;;18.21;67.00;98699.78;5132298;27;20138;-45
2023/07/26 04:07:44;;;;;;;6.70;1.95;;;;;;;17.82;67.67;98702.47;5133562;27;20072;-45
2023/07/26 04:10:10;;;;;;;7.88;2.10;;;;;;;17.89;68.45;98703.16;5132643;27;20422;-45
2023/07/26 04:12:36;;;;;;;16.88;2.65;;;;;;;17.98;68.64;98703.50;5115030;27;20023;-45
2023/07/26 04:15:02;;;;;;;11.68;4.07;;;;;;;18.03;68.08;98703.56;5133453;27;20080;-45
2023/07/26 04:17:27;;;;;;;14.15;3.40;;;;;;;17.93;68.23;98706.91;5133677;27;20027;-45
2023/07/26 04:19:53;;;;;;;25.10;3.70;;;;;;;18.03;68.58;98703.56;5114901;27;20668;-45
2023/07/26 04:22:19;;;;;;;25.00;3.42;;;;;;;18.16;67.86;98716.44;5133394;27;20445;-45
2023/07/26 04:24:46;;;;;;;14.45;3.15;;;;;;;18.42;68.02;98713.28;5133302;27;20110;-45
2023/07/26 04:27:11;;;;;;;2.60;2.28;;;;;;;18.11;65.76;98716.41;5133160;27;20039;-45
2023/07/26 04:29:38;;;;;;;10.68;2.83;;;;;;;17.66;67.86;98717.41;5131837;27;20484;-45
2023/07/26 04:32:04;;;;;;;9.77;3.38;;;;;;;17.62;68.27;98718.16;5133388;27;20418;-45
2023/07/26 04:34:29;;;;;;;9.70;2.70;;;;;;;17.39;68.17;98717.31;5133146;27;20034;-45
2023/07/26 04:36:55;;;;;;;5.43;3.00;;;;;;;17.16;68.48;98728.91;5133179;27;20019;-45
2023/07/26 04:39:20;;;;;;;13.75;2.85;;;;;;;16.83;69.35;98719.91;5133295;27;20481;-45
2023/07/26 04:41:46;;;;;;;14.60;3.42;;;;;;;16.78;71.14;98727.75;5131684;27;20030;-45
2023/07/26 04:44:12;;;;;;;5.68;3.33;;;;;;;17.14;71.44;98721.22;5133019;27;20053;-45
2023/07/26 04:46:37;;;;;;;22.85;16.27;;;;;;;17.51;70.15;98727.84;5131596;27;20034;-45
2023/07/26 04:49:03;;;;;;;25.45;22.65;;;;;;;18.30;68.25;98722.19;5132757;27;20038;-44
2023/07/26 04:51:29;;;;;;;9.02;2.92;;;;;;;18.78;65.55;98722.38;5131555;27;20510;-45
2023/07/26 04:53:55;;;;;;;9.50;3.03;;;;;;;19.08;64.11;98737.00;5132835;27;20023;-45
2023/07/26 04:56:25;;;;;;;16.38;4.40;;;;;;;19.21;63.78;98730.44;5132866;27;20384;-44
2023/07/26 04:58:51;;;;;;;11.32;4.35;;;;;;;19.48;63.86;98736.50;5132590;27;20047;-45
2023/07/26 05:01:17;;;;;;;10.07;3.03;;;;;;;19.92;61.68;98722.06;5114450;28;20200;-45
2023/07/26 05:03:42;;;;;;;10.45;2.88;;;;;;;19.89;61.55;98736.72;5131432;28;20050;-45
2023/07/26 05:06:10;;;;;;;13.35;3.03;;;;;;;20.17;60.51;98739.22;5132737;27;20102;-45
2023/07/26 05:08:36;;;;;;;19.83;2.90;;;;;;;20.09;59.99;98738.66;5132782;27;20031;-44
2023/07/26 05:11:02;;;;;;;10.75;2.90;;;;;;;19.60;61.19;98744.28;5114333;28;20396;-45
2023/07/26 05:13:27;;;;;;;12.43;3.30;;;;;;;19.59;62.35;98745.31;5132905;27;20523;-45
2023/07/26 05:15:53;;;;;;;10.95;2.80;;;;;;;20.06;61.73;98752.53;5132616;28;20031;-45
2023/07/26 05:18:19;;;;;;;9.38;2.97;;;;;;;20.57;60.45;98746.53;5131273;28;20031;-45
2023/07/26 05:20:44;;;;;;;7.20;2.30;;;;;;;20.66;59.42;98744.94;5131284;28;20523;-45
2023/07/26 05:23:10;;;;;;;8.95;3.20;;;;;;;20.71;59.39;98747.63;5136456;27;20423;-45
2023/07/26 05:25:39;;;;;;;13.30;2.63;;;;;;;20.86;58.84;98738.84;5136685;27;20023;-45
2023/07/26 05:28:05;;;;;;;7.38;2.70;;;;;;;21.05;58.50;98743.66;5136658;27;20110;-45
2023/07/26 05:30:31;;;;;;;8.25;2.78;;;;;;;21.16;57.78;98742.56;5136546;27;20107;-45
2023/07/26 05:32:56;;;;;;;8.18;2.72;;;;;;;21.69;56.75;98752.91;5136647;27;20397;-45
2023/07/26 05:35:22;;;;;;;11.27;2.65;;;;;;;22.61;54.76;98746.38;5135196;27;20449;-45
2023/07/26 05:37:49;;;;;;;13.75;2.90;;;;;;;24.17;50.71;98746.25;5135278;27;20034;-45
2023/07/26 05:40:15;;;;;;;8.05;2.60;;;;;;;25.79;45.55;98737.75;5136470;27;20102;-45
2023/07/26 05:42:41;;;;;;;11.93;3.15;;;;;;;26.46;43.73;98739.88;5118084;27;20060;-45
2023/07/26 05:45:07;;;;;;;8.02;2.67;;;;;;;26.86;41.95;98745.44;5136394;27;20023;-45
2023/07/26 05:47:37;;;;;;;6.18;2.90;;;;;;;26.41;42.61;98739.19;5136376;27;20492;-45
2023/07/26 05:50:04;;;;;;;8.73;2.90;;;;;;;26.93;41.68;98745.00;5136210;27;20484;-45
2023/07/26 05:52:29;;;;;;;9.90;3.88;;;;;;;27.05;40.90;98744.44;5136307;27;20052;-45
2023/07/26 05:54:55;;;;;;;10.40;4.32;;;;;;;26.59;41.72;98750.91;5136229;27;20019;-45
2023/07/26 05:57:21;;;;;;;10.77;4.72;;;;;;;26.24;43.16;98750.56;5136196;27;20106;-45
2023/07/26 05:59:46;;;;;;;10.10;4.45;;;;;;;26.10;43.18;98754.09;5134502;27;20504;-46
2023/07/26 06:02:12;;;;;;;5.90;3.63;;;;;;;26.04;43.44;98758.00;5136082;27;20381;-45
2023/07/26 06:04:38;;;;;;;7.97;3.35;;;;;;;26.15;42.79;98763.16;5134709;27;20038;-45
2023/07/26 06:07:04;;;;;;;5.72;3.60;;;;;;;25.58;43.33;98766.91;5135908;27;20098;-45
2023/07/26 06:09:30;;;;;;;7.63;3.63;;;;;;;24.87;44.37;98760.84;5135851;27;20148;-45
2023/07/26 06:11:56;;;;;;;7.57;4.57;;;;;;;24.16;46.17;98770.69;5134559;27;20484;-45
2023/07/26 06:14:24;;;;;;;8.68;4.50;;;;;;;23.58;47.79;98777.72;5135899;27;20026;-45
2023/07/26 06:16:50;;;;;;;8.98;4.80;;;;;;;23.30;49.29;98779.31;5135973;27;20038;-46
2023/07/26 06:19:16;;;;;;;10.98;4.20;;;;;;;23.13;49.85;98769.03;5134434;27;20568;-45
2023/07/26 06:21:41;;;;;;;9.20;3.58;;;;;;;23.45;49.68;98773.84;5134406;27;20032;-45
2023/07/26 06:24:07;;;;;;;9.25;3.38;;;;;;;24.75;47.76;98773.91;5135654;27;20026;-45
2023/07/26 06:26:34;;;;;;;14.57;4.15;;;;;;;26.44;44.14;98768.16;5135793;27;20026;-45
2023/07/26 06:29:00;;;;;;;8.93;3.53;;;;;;;28.38;40.47;98772.41;5135519;27;20400;-46
2023/07/26 06:31:25;;;;;;;8.13;3.00;;;;;;;29.96;37.45;98761.00;5135559;27;20102;-45
2023/07/26 06:33:51;;;;;;;13.15;4.22;;;;;;;31.05;35.31;98758.47;5134863;27;20031;-46
2023/07/26 06:36:17;;;;;;;10.32;2.72;;;;;;;31.95;32.94;98759.44;5134135;27;20570;-45
2023/07/26 06:38:42;;;;;;;10.02;2.40;;;;;;;32.82;31.21;98757.34;5134090;27;20542;-46
2023/07/26 06:41:08;;;;;;;5.47;2.80;;;;;;;32.25;31.31;98765.41;5134019;27;20111;-46
2023/07/26 06:43:33;;;;;;;7.70;2.63;;;;;;;32.08;31.26;98763.00;5135253;27;20055;-46
2023/07/26 06:45:59;;;;;;;9.70;2.85;;;;;;;32.25;31.70;98767.34;5135235;27;20098;-46
2023/07/26 06:48:25;;;;;;;7.50;2.63;;;;;;;32.44;30.77;98762.13;5133913;27;20038;-46
2023/07/26 06:50:50;;;;;;;12.82;2.40;;;;;;;33.22;29.78;98759.19;5133681;27;20023;-46
2023/07/26 06:53:16;;;;;;;9.10;2.15;;;;;;;32.29;30.57;98767.47;5135061;27;20035;-46
2023/07/26 06:55:42;;;;;;;7.97;2.95;;;;;;;31.90;30.83;98767.84;5135004;27;20019;-46
2023/07/26 06:58:07;;;;;;;12.13;2.67;;;;;;;32.95;29.52;98763.53;5134994;27;20373;-46
2023/07/26 07:00:33;;;;;;;4.00;2.28;;;;;;;33.90;27.84;98755.41;5133497;27;20050;-46
2023/07/26 07:03:00;;;;;;;4.28;1.90;;;;;;;34.65;27.27;98755.47;5135156;27;20030;-46
2023/07/26 07:05:28;;;;;;;4.63;1.95;;;;;;;35.25;26.35;98760.50;5133527;27;20031;-46
2023/07/26 07:07:54;;;;;;;5.15;1.73;;;;;;;35.71;25.36;98755.81;5134821;27;20020;-46
2023/07/26 07:10:23;;;;;;;4.07;1.85;;;;;;;35.71;24.90;98757.78;5133388;27;20015;-46
2023/07/26 07:12:49;;;;;;;6.30;1.55;;;;;;;35.18;25.61;98763.91;5134744;27;20026;-46
2023/07/26 07:15:14;;;;;;;7.80;1.60;;;;;;;35.14;25.44;98758.34;5134890;27;20019;-46
2023/07/26 07:17:40;;;;;;;11.95;2.80;;;;;;;35.18;25.70;98758.47;5133291;27;20019;-46
2023/07/26 07:20:08;;;;;;;12.63;3.00;;;;;;;35.26;25.53;98749.25;5134604;27;20488;-45
2023/07/26 07:22:34;;;;;;;12.13;2.45;;;;;;;35.58;24.97;98755.22;5134797;27;20085;-46
2023/07/26 07:25:00;;;;;;;13.57;1.75;;;;;;;35.80;24.56;98763.78;5133150;27;20031;-46
2023/07/26 07:27:26;;;;;;;9.13;1.52;;;;;;;35.68;24.01;98763.97;5134433;27;20098;-46
2023/07/26 07:29:52;;;;;;;6.40;1.13;;;;;;;35.38;24.17;98748.28;5134557;27;20059;-46
2023/07/26 07:32:18;;;;;;;4.28;1.40;;;;;;;34.92;24.78;98759.13;5134245;27;20027;-46
2023/07/26 07:34:45;;;;;;;1.48;0.95;;;;;;;34.77;24.41;98775.22;5134259;27;20023;-46
2023/07/26 07:37:10;;;;;;;2.45;1.02;;;;;;;34.46;24.78;98767.94;5134265;27;20098;-46
2023/07/26 07:39:36;;;;;;;7.35;1.33;;;;;;;34.01;24.97;98772.03;5132812;27;20192;-46
2023/07/26 07:42:02;;;;;;;6.20;1.80;;;;;;;33.81;25.70;98780.13;5132807;27;20023;-46
2023/07/26 07:44:28;;;;;;;3.50;1.20;;;;;;;33.86;25.14;98770.88;5132826;27;20114;-46
2023/07/26 07:46:54;;;;;;;7.50;1.60;;;;;;;33.80;25.60;98772.31;5134278;27;20019;-46
2023/07/26 07:49:20;;;;;;;6.53;0.93;;;;;;;34.08;25.07;98768.66;5132690;27;20041;-46
2023/07/26 07:51:45;;;;;;;8.15;1.70;;;;;;;34.27;24.94;98766.00;5133927;27;20018;-46
2023/07/26 07:54:11;;;;;;;14.18;4.93;;;;;;;34.41;24.80;98769.03;5133910;27;20027;-46
2023/07/26 07:56:37;;;;;;;5.57;1.88;;;;;;;34.77;24.42;98767.03;5133883;27;20020;-46
2023/07/26 07:59:03;;;;;;;7.57;1.20;;;;;;;35.16;24.26;98767.00;5133593;27;20127;-46
2023/07/26 08:01:30;;;;;;;3.20;1.08;;;;;;;35.50;23.25;98767.19;5115410;27;20056;-47
2023/07/26 08:03:56;;;;;;;16.75;2.40;;;;;;;35.48;23.61;98758.56;5133655;27;20488;-46
2023/07/26 08:06:24;;;;;;;22.65;3.13;;;;;;;35.88;23.47;98764.66;5132325;27;20023;-46
2023/07/26 08:08:50;;;;;;;7.53;1.20;;;;;;;36.12;22.96;98763.41;5133515;27;20560;-46
2023/07/26 08:11:15;;;;;;;2.83;1.10;;;;;;;36.47;22.51;98767.81;5133543;27;20055;-46
2023/07/26 08:13:42;;;;;;;3.60;0.93;;;;;;;36.21;22.53;98774.13;5133538;27;20481;-46
2023/07/26 08:16:08;;;;;;;20.42;2.88;;;;;;;36.06;22.92;98778.56;5132257;27;20089;-46
2023/07/26 08:18:33;;;;;;;5.10;1.27;;;;;;;36.47;22.58;98778.75;5132091;27;20026;-46
2023/07/26 08:20:59;;;;;;;5.68;1.40;;;;;;;36.87;21.98;98767.13;5132208;27;20098;-45
2023/07/26 08:23:26;;;;;;;7.70;1.33;;;;;;;36.62;22.16;98775.03;5132045;27;20023;-46
2023/07/26 08:25:52;;;;;;;7.95;1.45;;;;;;;36.26;21.77;98773.78;5133206;27;20019;-46
2023/07/26 08:28:17;;;;;;;4.75;1.42;;;;;;;34.70;22.98;98766.13;5133279;27;20027;-46
2023/07/26 08:30:43;;;;;;;7.55;1.65;;;;;;;32.82;25.56;98771.75;5133156;27;20118;-46
2023/07/26 08:33:09;;;;;;;32.95;4.70;;;;;;;31.41;26.73;98779.44;5133169;27;20039;-46
2023/07/26 08:35:35;;;;;;;35.63;4.97;;;;;;;30.22;28.72;98784.41;5133155;27;20072;-45
2023/07/26 08:38:00;;;;;;;9.02;2.05;;;;;;;29.15;29.79;98778.94;5133121;27;20057;-45
2023/07/26 08:40:26;;;;;;;4.90;1.63;;;;;;;29.52;30.04;98781.22;5133008;27;20087;-45
2023/07/26 08:42:55;;;;;;;4.78;1.42;;;;;;;30.74;28.19;98770.50;5133012;27;20030;-45
2023/07/26 08:45:21;;;;;;;15.35;2.30;;;;;;;30.14;28.69;98785.25;5132999;27;20015;-45
2023/07/26 08:47:47;;;;;;;7.15;1.38;;;;;;;29.76;29.42;98780.66;5133002;27;20073;-45
2023/07/26 08:50:12;;;;;;;6.78;1.70;;;;;;;30.06;28.75;98795.81;5132817;27;20546;-45
2023/07/26 08:52:38;;;;;;;9.57;1.52;;;;;;;29.49;29.45;98804.28;5132890;27;20045;-45
2023/07/26 08:55:05;;;;;;;9.95;3.35;;;;;;;29.61;29.12;98787.41;5131472;27;20016;-45
2023/07/26 08:57:30;;;;;;;19.10;3.00;;;;;;;30.49;28.20;98788.56;5132342;27;20030;-46
2023/07/26 08:59:57;;;;;;;14.20;2.42;;;;;;;32.56;25.72;98782.25;5132641;27;20040;-46
2023/07/26 09:02:23;;;;;;;3.80;1.30;;;;;;;34.19;23.34;98783.34;5132788;27;20020;-46
2023/07/26 09:04:49;;;;;;;7.78;0.85;;;;;;;35.50;22.12;98777.31;5132697;27;20358;-46
2023/07/26 09:07:15;;;;;;;4.20;2.65;;;;;;;36.82;20.44;98772.16;5131745;28;20019;-46
2023/07/26 09:09:40;;;;;;;4.72;1.73;;;;;;;37.78;19.09;98769.53;5132905;27;20027;-46
2023/07/26 09:12:10;;;;;;;7.07;1.52;;;;;;;37.68;19.68;98779.25;5132926;28;20500;-46
2023/07/26 09:14:36;;;;;;;9.02;1.75;;;;;;;37.73;18.76;98778.09;5132587;27;20093;-46
2023/07/26 09:17:04;;;;;;;20.60;4.20;;;;;;;36.18;20.19;98779.19;5131345;28;20031;-46
2023/07/26 09:19:35;;;;;;;3.40;1.00;;;;;;;36.02;20.37;98777.72;5131309;28;20031;-46
2023/07/26 09:22:03;;;;;;;11.90;0.98;;;;;;;36.32;20.28;98773.13;5131313;28;20023;-46
2023/07/26 09:24:34;;;;;;;11.05;1.50;;;;;;;37.22;19.81;98767.88;5132550;27;20035;-46
2023/07/26 09:27:06;;;;;;;2.50;0.80;;;;;;;38.10;18.88;98774.47;5132803;27;20383;-46
2023/07/26 09:29:33;;;;;;;9.75;1.73;;;;;;;38.50;18.42;98781.69;5132677;27;20023;-46
2023/07/26 09:31:59;;;;;;;5.22;0.95;;;;;;;38.99;17.69;98776.78;5132458;27;20019;-47
2023/07/26 09:34:25;;;;;;;2.10;0.70;;;;;;;39.39;17.08;98776.84;5132596;27;20511;-47
2023/07/26 09:36:52;;;;;;;4.80;0.90;;;;;;;39.75;16.80;98772.91;5132491;28;20024;-47
2023/07/26 09:39:19;;;;;;;3.90;1.10;;;;;;;39.96;16.28;98770.53;5132471;27;20561;-47
2023/07/26 09:41:46;;;;;;;13.27;1.70;;;;;;;40.04;16.52;98783.09;5132457;27;20096;-47
2023/07/26 09:44:15;;;;;;;4.57;1.13;;;;;;;40.33;16.06;98787.34;5131167;28;20031;-47
2023/07/26 09:46:52;;;;;;;1.92;0.93;;;;;;;40.43;15.83;98783.00;5132423;27;20038;-46
2023/07/26 09:49:19;;;;;;;5.55;1.05;;;;;;;40.48;15.67;98790.81;5132282;27;20561;-47
2023/07/26 09:51:45;;;;;;;3.58;0.70;;;;;;;40.89;15.29;98787.50;5130968;28;20027;-47
2023/07/26 09:54:12;;;;;;;2.70;1.02;;;;;;;40.09;15.86;98794.47;5132282;27;20377;-47
2023/07/26 09:56:40;;;;;;;5.53;1.08;;;;;;;37.81;17.68;98798.91;5132292;27;20035;-47
2023/07/26 09:59:11;;;;;;;4.47;1.00;;;;;;;37.35;18.38;98791.88;5131983;27;20581;-46
2023/07/26 10:01:44;;;;;;;10.20;1.73;;;;;;;37.97;18.21;98798.59;5132513;27;20061;-47
2023/07/26 10:04:12;;;;;;;10.65;1.80;;;;;;;37.62;18.06;98793.69;5132297;27;20031;-47
2023/07/26 10:06:41;;;;;;;5.95;1.50;;;;;;;36.42;19.43;98798.22;5130879;28;20031;-46
2023/07/26 10:09:12;;;;;;;2.28;0.98;;;;;;;35.20;20.55;98811.50;5134138;27;20031;-46
2023/07/26 10:11:40;;;;;;;5.40;1.38;;;;;;;33.49;21.71;98801.09;5135900;27;20031;-46
2023/07/26 10:14:06;;;;;;;6.47;1.10;;;;;;;32.29;23.47;98803.56;5135819;27;20031;-45
2023/07/26 10:16:32;;;;;;;5.05;1.40;;;;;;;32.77;23.49;98806.53;5135813;27;20034;-45
2023/07/26 10:19:02;;;;;;;2.78;0.90;;;;;;;34.57;21.89;98809.84;5134431;27;20484;-45
2023/07/26 10:21:29;;;;;;;6.05;0.98;;;;;;;35.73;20.13;98796.44;5134384;27;20035;-46
2023/07/26 10:23:58;;;;;;;4.32;1.10;;;;;;;35.63;20.34;98795.06;5134365;27;20023;-46
2023/07/26 10:26:28;;;;;;;9.55;1.42;;;;;;;35.20;20.09;98803.31;5135525;27;20037;-46
2023/07/26 10:28:59;;;;;;;6.03;1.13;;;;;;;34.57;20.69;98789.97;5135565;27;20032;-46
2023/07/26 10:31:26;;;;;;;2.42;1.00;;;;;;;34.51;20.95;98800.38;5135606;27;20120;-46
2023/07/26 10:33:56;;;;;;;9.10;1.30;;;;;;;35.26;20.27;98784.72;5135498;27;20029;-46
2023/07/26 10:36:28;;;;;;;4.65;1.10;;;;;;;36.18;19.93;98773.72;5134050;27;20111;-46
2023/07/26 10:38:54;;;;;;;5.53;1.20;;;;;;;37.39;19.31;98772.75;5135807;27;20015;-46
2023/07/26 10:41:25;;;;;;;7.15;1.30;;;;;;;38.17;18.40;98771.75;5134145;27;20387;-47
2023/07/26 10:44:07;;;;;;;5.93;1.38;;;;;;;38.50;17.85;98767.22;5134421;27;20466;-46
2023/07/26 10:47:03;;;;;;;5.72;1.20;;;;;;;39.49;16.98;98754.88;5134095;27;20118;-46
2023/07/26 10:49:31;;;;;;;4.45;1.20;;;;;;;40.13;16.51;98753.22;5135350;27;20031;-47
2023/07/26 10:52:00;;;;;;;6.97;0.98;;;;;;;40.72;16.01;98739.59;5135122;27;20068;-47
2023/07/26 10:54:34;;;;;;;9.18;1.50;;;;;;;38.66;17.12;98747.69;5135134;27;20499;-47
2023/07/26 10:57:28;;;;;;;3.22;1.13;;;;;;;36.09;19.59;98750.53;5135293;27;20050;-46
2023/07/26 10:59:56;;;;;;;4.55;1.30;;;;;;;36.38;19.46;98748.94;5116417;27;20122;-46
2023/07/26 11:02:48;;;;;;;6.03;1.92;;;;;;;36.84;18.95;98753.41;5134876;27;20030;-46
2023/07/26 11:05:20;;;;;;;2.30;0.90;;;;;;;36.68;18.67;98748.16;5134842;27;20019;-46
2023/07/26 11:08:06;;;;;;;3.28;0.93;;;;;;;37.40;18.40;98744.19;5134985;27;20030;-46
2023/07/26 11:10:33;;;;;;;3.22;0.73;;;;;;;37.42;18.06;98750.06;5133694;27;20023;-46
2023/07/26 11:13:12;;;;;;;6.72;1.50;;;;;;;36.76;18.68;98736.13;5134704;27;20030;-46
2023/07/26 11:15:40;;;;;;;2.58;0.82;;;;;;;35.94;18.71;98733.94;5134550;27;20076;-46
2023/07/26 11:18:06;;;;;;;6.47;1.25;;;;;;;35.10;19.93;98743.09;5134704;27;20031;-46
2023/07/26 11:20:32;;;;;;;5.43;1.42;;;;;;;34.64;19.75;98746.50;5134456;27;20035;-47
2023/07/26 11:22:58;;;;;;;7.18;1.40;;;;;;;34.80;20.13;98746.44;5134583;27;20031;-46
2023/07/26 11:25:24;;;;;;;7.05;1.33;;;;;;;35.24;19.50;98742.56;5134495;27;20020;-46
2023/07/26 11:27:50;;;;;;;4.18;1.20;;;;;;;35.03;19.22;98749.19;5116087;27;20054;-46
2023/07/26 11:30:19;;;;;;;2.88;0.85;;;;;;;35.16;19.38;98750.63;5133116;27;20488;-46